createdAt,value
2022-08-30T00:01:00.590Z,2.38
2022-08-30T00:03:27.562Z,2.25
2022-08-30T00:05:56.350Z,2.13
2022-08-30T00:08:23.372Z,2.08
2022-08-30T00:10:51.277Z,2.10
2022-08-30T00:13:19.531Z,2.22
2022-08-30T00:15:47.337Z,2.38
2022-08-30T00:18:15.723Z,2.25
2022-08-30T00:20:42.798Z,2.60
2022-08-30T00:23:09.462Z,2.55
2022-08-30T00:25:36.116Z,2.50
2022-08-30T00:28:03.155Z,2.55
2022-08-30T00:30:29.862Z,2.20
2022-08-30T00:32:56.399Z,2.58
2022-08-30T00:35:23.374Z,2.00
2022-08-30T00:37:50.893Z,2.20
2022-08-30T00:40:20.382Z,2.33
2022-08-30T00:42:59.854Z,2.22
2022-08-30T00:45:31.749Z,3.15
2022-08-30T00:47:59.085Z,2.30
2022-08-30T00:50:28.967Z,2.55
2022-08-30T00:52:59.324Z,2.22
2022-08-30T00:55:26.314Z,2.40
2022-08-30T00:57:57.049Z,2.55
2022-08-30T01:00:23.664Z,2.20
2022-08-30T01:02:50.670Z,2.35
2022-08-30T01:05:20.675Z,2.45
2022-08-30T01:07:47.280Z,2.55
2022-08-30T01:10:14.894Z,2.42
2022-08-30T01:12:42.950Z,2.30
2022-08-30T01:15:11.047Z,2.30
2022-08-30T01:17:38.243Z,2.13
2022-08-30T01:20:10.516Z,2.17
2022-08-30T01:22:49.295Z,2.60
2022-08-30T01:25:18.755Z,2.00
2022-08-30T01:27:49.327Z,2.75
2022-08-30T01:30:16.014Z,2.43
2022-08-30T01:32:45.896Z,2.15
2022-08-30T01:35:15.613Z,2.60
2022-08-30T01:37:43.567Z,5.88
2022-08-30T01:40:11.906Z,2.38
2022-08-30T01:42:38.547Z,2.22
2022-08-30T01:45:06.716Z,2.53
2022-08-30T01:47:33.487Z,2.65
2022-08-30T01:50:00.476Z,2.45
2022-08-30T01:52:27.943Z,2.80
2022-08-30T01:54:54.548Z,2.42
2022-08-30T01:57:23.387Z,2.60
2022-08-30T01:59:50.402Z,2.70
2022-08-30T02:02:19.854Z,2.95
2022-08-30T02:04:46.754Z,2.50
2022-08-30T02:07:13.280Z,2.45
2022-08-30T02:09:44.210Z,2.60
2022-08-30T02:12:12.834Z,2.42
2022-08-30T02:14:39.589Z,2.65
2022-08-30T02:17:08.228Z,2.47
2022-08-30T02:19:34.793Z,2.90
2022-08-30T02:22:01.408Z,2.42
2022-08-30T02:24:28.158Z,2.80
2022-08-30T02:26:54.781Z,2.85
2022-08-30T02:29:22.558Z,2.70
2022-08-30T02:31:49.542Z,2.53
2022-08-30T02:34:16.897Z,3.58
2022-08-30T02:36:43.958Z,2.60
2022-08-30T02:39:11.920Z,2.60
2022-08-30T02:41:39.066Z,2.70
2022-08-30T02:44:06.572Z,2.70
2022-08-30T02:46:34.741Z,2.72
2022-08-30T02:49:13.043Z,2.88
2022-08-30T02:51:49.495Z,2.63
2022-08-30T02:54:19.958Z,2.75
2022-08-30T02:56:47.935Z,2.60
2022-08-30T02:59:15.886Z,2.42
2022-08-30T03:01:42.930Z,2.40
2022-08-30T03:04:09.966Z,2.10
2022-08-30T03:06:36.581Z,2.45
2022-08-30T03:09:03.678Z,2.80
2022-08-30T03:11:31.553Z,2.22
2022-08-30T03:13:58.302Z,2.40
2022-08-30T03:16:25.083Z,2.50
2022-08-30T03:18:51.674Z,2.60
2022-08-30T03:21:18.323Z,2.40
2022-08-30T03:23:44.951Z,2.85
2022-08-30T03:26:14.735Z,2.88
2022-08-30T03:28:42.620Z,2.75
2022-08-30T03:31:09.462Z,2.58
2022-08-30T03:33:36.829Z,3.00
2022-08-30T03:36:03.874Z,3.10
2022-08-30T03:38:31.073Z,2.88
2022-08-30T03:40:57.686Z,3.67
2022-08-30T03:43:25.365Z,2.88
2022-08-30T03:45:52.459Z,3.08
2022-08-30T03:48:19.126Z,3.17
2022-08-30T03:50:45.703Z,2.78
2022-08-30T03:53:12.329Z,2.85
2022-08-30T03:55:38.891Z,2.95
2022-08-30T03:58:05.489Z,3.42
2022-08-30T04:00:32.182Z,3.22
2022-08-30T04:02:58.847Z,3.00
2022-08-30T04:05:25.525Z,2.80
2022-08-30T04:07:52.375Z,2.90
2022-08-30T04:10:21.337Z,3.20
2022-08-30T04:12:49.803Z,3.05
2022-08-30T04:15:18.018Z,3.70
2022-08-30T04:17:44.736Z,2.67
2022-08-30T04:20:11.376Z,3.65
2022-08-30T04:22:38.209Z,3.10
2022-08-30T04:25:06.068Z,3.50
2022-08-30T04:27:32.711Z,3.00
2022-08-30T04:30:00.277Z,2.90
2022-08-30T04:32:27.122Z,2.92
2022-08-30T04:34:58.632Z,3.28
2022-08-30T04:37:25.414Z,3.25
2022-08-30T04:39:56.470Z,3.45
2022-08-30T04:42:23.676Z,3.28
2022-08-30T04:44:50.930Z,3.33
2022-08-30T04:47:18.574Z,3.17
2022-08-30T04:49:45.191Z,3.05
2022-08-30T04:52:11.790Z,3.00
2022-08-30T04:54:38.567Z,3.20
2022-08-30T04:57:06.559Z,3.58
2022-08-30T04:59:33.409Z,3.53
2022-08-30T05:02:00.325Z,4.72
2022-08-30T05:04:26.972Z,3.50
2022-08-30T05:06:53.959Z,3.20
2022-08-30T05:09:21.639Z,3.45
2022-08-30T05:11:48.570Z,3.10
2022-08-30T05:14:15.179Z,3.20
2022-08-30T05:16:42.005Z,3.65
2022-08-30T05:19:08.628Z,3.10
2022-08-30T05:21:35.460Z,3.03
2022-08-30T05:24:02.253Z,2.92
2022-08-30T05:26:33.799Z,3.00
2022-08-30T05:29:01.012Z,3.15
2022-08-30T05:31:30.577Z,3.17
2022-08-30T05:33:57.760Z,3.17
2022-08-30T05:36:26.455Z,3.17
2022-08-30T05:38:53.727Z,3.58
2022-08-30T05:41:21.634Z,4.07
2022-08-30T05:43:48.882Z,3.60
2022-08-30T05:46:19.958Z,4.35
2022-08-30T05:48:47.032Z,3.55
2022-08-30T05:51:19.265Z,3.30
2022-08-30T05:53:47.042Z,3.70
2022-08-30T05:56:15.956Z,3.38
2022-08-30T05:58:43.527Z,3.60
2022-08-30T06:01:31.812Z,3.60
2022-08-30T06:04:03.835Z,3.80
2022-08-30T06:06:33.302Z,3.95
2022-08-30T06:08:59.851Z,3.80
2022-08-30T06:11:26.800Z,3.50
2022-08-30T06:13:54.612Z,3.53
2022-08-30T06:16:23.861Z,3.40
2022-08-30T06:18:50.865Z,3.75
2022-08-30T06:21:25.116Z,3.40
2022-08-30T06:23:52.340Z,3.22
2022-08-30T06:26:19.225Z,3.58
2022-08-30T06:28:45.831Z,3.97
2022-08-30T06:31:14.340Z,3.83
2022-08-30T06:33:41.053Z,4.03
2022-08-30T06:36:10.491Z,3.80
2022-08-30T06:38:37.830Z,3.58
2022-08-30T06:41:08.944Z,3.58
2022-08-30T06:43:35.605Z,3.80
2022-08-30T06:46:05.288Z,4.07
2022-08-30T06:48:31.916Z,3.55
2022-08-30T06:50:59.207Z,3.58
2022-08-30T06:53:26.960Z,3.75
2022-08-30T06:56:04.439Z,3.90
2022-08-30T06:58:31.761Z,3.50
2022-08-30T07:00:58.411Z,3.45
2022-08-30T07:03:27.330Z,3.28
2022-08-30T07:05:56.976Z,3.35
2022-08-30T07:08:25.444Z,3.22
2022-08-30T07:10:54.545Z,3.90
2022-08-30T07:13:23.876Z,3.45
2022-08-30T07:15:51.406Z,3.47
2022-08-30T07:18:36.888Z,3.00
2022-08-30T07:21:15.202Z,2.92
2022-08-30T07:23:43.404Z,2.80
2022-08-30T07:26:12.637Z,2.90
2022-08-30T07:28:41.169Z,2.78
2022-08-30T07:33:40.569Z,2.65
2022-08-30T07:36:07.596Z,2.97
2022-08-30T07:38:34.628Z,3.10
2022-08-30T07:41:01.351Z,2.60
2022-08-30T07:43:29.116Z,3.42
2022-08-30T07:45:58.014Z,2.70
2022-08-30T07:48:24.649Z,2.80
2022-08-30T07:50:54.908Z,2.90
2022-08-30T07:53:24.331Z,2.60
2022-08-30T07:55:51.992Z,2.50
2022-08-30T07:58:18.648Z,2.72
2022-08-30T08:00:45.549Z,2.28
2022-08-30T08:03:12.564Z,2.33
2022-08-30T08:05:43.984Z,2.45
2022-08-30T08:08:11.231Z,2.55
2022-08-30T08:10:39.197Z,2.50
2022-08-30T08:13:05.930Z,2.28
2022-08-30T08:15:33.027Z,2.00
2022-08-30T08:18:00.363Z,2.08
2022-08-30T08:20:27.217Z,2.20
2022-08-30T08:22:54.018Z,2.47
2022-08-30T08:25:20.707Z,2.60
2022-08-30T08:27:49.122Z,3.08
2022-08-30T08:30:15.872Z,2.40
2022-08-30T08:32:42.987Z,2.67
2022-08-30T08:35:11.247Z,2.40
2022-08-30T08:37:38.621Z,2.60
2022-08-30T08:40:07.050Z,3.17
2022-08-30T08:42:48.899Z,2.50
2022-08-30T08:45:19.952Z,2.60
2022-08-30T08:48:05.369Z,3.58
2022-08-30T08:50:32.191Z,3.25
2022-08-30T08:53:44.721Z,3.53
2022-08-30T08:56:12.630Z,3.95
2022-08-30T09:01:18.306Z,3.80
2022-08-30T09:03:46.415Z,3.28
2022-08-30T09:06:16.032Z,3.38
2022-08-30T09:08:42.606Z,6.43
2022-08-30T09:11:16.678Z,4.45
2022-08-30T09:13:43.350Z,5.18
2022-08-30T09:16:14.939Z,3.92
2022-08-30T09:18:54.631Z,4.45
2022-08-30T09:21:25.202Z,4.57
2022-08-30T09:24:00.329Z,3.97
2022-08-30T09:26:36.566Z,4.00
2022-08-30T09:29:05.202Z,3.35
2022-08-30T09:31:47.577Z,3.08
2022-08-30T09:34:20.283Z,2.90
2022-08-30T09:36:49.840Z,2.90
2022-08-30T09:39:30.518Z,2.60
2022-08-30T09:42:22.659Z,4.03
2022-08-30T09:44:49.831Z,2.50
2022-08-30T09:47:28.523Z,2.50
2022-08-30T09:50:21.146Z,2.45
2022-08-30T09:52:58.086Z,2.40
2022-08-30T09:55:43.473Z,2.22
2022-08-30T09:58:16.184Z,2.58
2022-08-30T10:00:49.605Z,3.28
2022-08-30T10:03:36.450Z,2.97
2022-08-30T10:06:46.578Z,2.50
2022-08-30T10:09:21.245Z,2.60
2022-08-30T10:11:59.074Z,3.60
2022-08-30T10:15:02.612Z,2.30
2022-08-30T10:18:17.225Z,1.98
2022-08-30T10:20:56.752Z,2.10
2022-08-30T10:23:29.866Z,2.40
2022-08-30T10:26:06.011Z,2.40
2022-08-30T10:28:55.871Z,2.38
2022-08-30T10:31:44.525Z,2.40
2022-08-30T10:34:26.065Z,2.13
2022-08-30T10:37:04.500Z,2.72
2022-08-30T10:39:39.537Z,2.38
2022-08-30T10:42:10.734Z,2.13
2022-08-30T10:44:44.590Z,2.10
2022-08-30T10:47:18.595Z,1.88
2022-08-30T10:49:55.794Z,2.00
2022-08-30T10:52:48.091Z,2.10
2022-08-30T10:55:22.217Z,1.83
2022-08-30T10:57:49.775Z,1.90
2022-08-30T11:00:25.271Z,1.95
2022-08-30T11:03:20.630Z,2.00
2022-08-30T11:06:03.315Z,2.33
2022-08-30T11:08:47.876Z,2.28
2022-08-30T11:11:51.960Z,2.33
2022-08-30T11:14:19.934Z,2.72
2022-08-30T11:16:54.224Z,2.25
2022-08-30T11:19:32.375Z,2.20
2022-08-30T11:22:35.538Z,2.28
2022-08-30T11:25:15.668Z,2.55
2022-08-30T11:27:45.228Z,2.10
2022-08-30T11:30:27.367Z,2.45
2022-08-30T11:33:03.240Z,2.45
2022-08-30T11:35:48.767Z,2.13
2022-08-30T11:38:26.439Z,2.20
2022-08-30T11:40:56.325Z,1.90
2022-08-30T11:43:36.566Z,2.23
2022-08-30T11:46:28.117Z,2.08
2022-08-30T11:52:26.560Z,1.67
2022-08-30T11:54:52.881Z,1.70
2022-08-30T11:57:42.847Z,1.70
2022-08-30T12:00:31.333Z,1.83
2022-08-30T12:03:03.990Z,1.80
2022-08-30T12:05:41.172Z,1.88
2022-08-30T12:08:20.630Z,1.98
2022-08-30T12:10:57.343Z,1.42
2022-08-30T12:13:39.129Z,1.90
2022-08-30T12:16:13.137Z,1.60
2022-08-30T12:35:26.322Z,2.40
2022-08-30T12:38:05.869Z,2.80
2022-08-30T12:40:35.380Z,6.07
2022-08-30T13:07:34.264Z,25.40
2022-08-30T13:10:07.101Z,14.60
2022-08-30T13:12:36.012Z,10.00
2022-08-30T13:15:16.691Z,11.07
2022-08-30T13:17:45.152Z,12.13
2022-08-30T13:20:11.645Z,9.20
2022-08-30T13:22:40.713Z,7.70
2022-08-30T13:25:09.335Z,8.00
2022-08-30T13:27:37.358Z,6.65
2022-08-30T13:30:22.605Z,6.43
2022-08-30T13:32:50.259Z,9.05
2022-08-30T13:35:17.126Z,21.15
2022-08-30T13:37:49.895Z,14.15
2022-08-30T13:40:24.288Z,28.15
2022-08-30T14:15:33.446Z,46.63
2022-08-30T14:17:59.976Z,61.22
2022-08-30T14:20:26.563Z,60.17
2022-08-30T14:22:53.539Z,76.63
2022-08-30T14:25:20.133Z,44.80
2022-08-30T14:27:47.282Z,44.25
2022-08-30T14:30:16.725Z,32.83
2022-08-30T14:32:47.200Z,42.22
2022-08-30T14:35:16.535Z,29.35
2022-08-30T14:37:43.045Z,24.63
2022-08-30T14:40:10.202Z,20.27
2022-08-30T14:42:37.304Z,15.25
2022-08-30T14:45:04.503Z,12.88
2022-08-30T14:47:31.118Z,10.52
2022-08-30T14:50:00.881Z,12.68
2022-08-30T14:52:31.041Z,13.70
2022-08-30T14:55:08.782Z,10.55
2022-08-30T14:57:35.936Z,10.70
2022-08-30T15:00:07.079Z,13.60
2022-08-30T15:18:06.464Z,6.75
2022-08-30T15:20:33.097Z,4.75
2022-08-30T15:23:00.569Z,4.95
2022-08-30T15:25:27.610Z,5.82
2022-08-30T15:27:54.173Z,5.10
2022-08-30T15:30:21.285Z,4.35
2022-08-30T15:32:47.897Z,4.30
2022-08-30T15:35:15.169Z,4.30
2022-08-30T15:37:43.054Z,3.75
2022-08-30T15:40:10.462Z,3.20
2022-08-30T15:42:37.066Z,3.33
2022-08-30T15:45:04.058Z,3.33
2022-08-30T15:47:30.682Z,3.97
2022-08-30T15:50:03.046Z,4.88
2022-08-30T15:52:30.726Z,4.03
2022-08-30T15:54:57.660Z,3.88
2022-08-30T15:57:24.453Z,3.70
2022-08-30T15:59:51.189Z,4.38
2022-08-30T16:02:17.764Z,4.80
2022-08-30T16:04:44.869Z,3.40
2022-08-30T16:07:13.711Z,3.78
2022-08-30T16:09:40.804Z,3.58
2022-08-30T16:12:09.860Z,4.07
2022-08-30T16:14:36.784Z,3.22
2022-08-30T16:17:04.856Z,3.40
2022-08-30T16:19:32.941Z,3.90
2022-08-30T16:21:59.944Z,3.38
2022-08-30T16:24:27.118Z,3.13
2022-08-30T16:26:53.744Z,2.53
2022-08-30T16:29:20.683Z,3.35
2022-08-30T16:31:47.607Z,4.20
2022-08-30T16:34:16.784Z,3.67
2022-08-30T16:36:43.522Z,2.67
2022-08-30T16:39:12.830Z,3.22
2022-08-30T16:41:40.587Z,3.47
2022-08-30T16:44:07.323Z,3.92
2022-08-30T16:46:35.830Z,2.90
2022-08-30T16:49:02.770Z,3.80
2022-08-30T16:51:31.541Z,4.25
2022-08-30T16:54:01.684Z,2.97
2022-08-30T16:56:30.096Z,3.78
2022-08-30T16:59:01.795Z,3.60
2022-08-30T17:01:35.378Z,2.83
2022-08-30T17:04:03.189Z,2.50
2022-08-30T17:06:30.195Z,2.92
2022-08-30T17:08:56.765Z,2.10
2022-08-30T17:11:24.182Z,2.22
2022-08-30T17:13:51.190Z,2.92
2022-08-30T17:16:22.805Z,2.35
2022-08-30T17:18:55.072Z,3.35
2022-08-30T17:21:21.876Z,2.15
2022-08-30T17:23:50.294Z,2.80
2022-08-30T17:26:18.531Z,2.42
2022-08-30T17:28:45.769Z,3.45
2022-08-30T17:31:12.523Z,3.42
2022-08-30T17:33:43.091Z,3.17
2022-08-30T17:36:12.413Z,2.57
2022-08-30T17:38:44.717Z,1.75
2022-08-30T17:41:12.025Z,2.38
2022-08-30T17:43:39.334Z,2.08
2022-08-30T17:46:09.032Z,1.98
2022-08-30T17:48:37.279Z,2.08
2022-08-30T17:51:04.287Z,2.17
2022-08-30T17:53:30.896Z,2.00
2022-08-30T17:55:58.743Z,2.13
2022-08-30T17:58:25.455Z,1.90
2022-08-30T18:00:54.177Z,1.90
2022-08-30T18:03:20.880Z,1.73
2022-08-30T18:05:47.490Z,1.63
2022-08-30T18:08:14.151Z,2.17
2022-08-30T18:10:40.885Z,1.90
2022-08-30T18:13:07.728Z,2.15
2022-08-30T18:15:35.345Z,1.98
2022-08-30T18:18:01.914Z,2.35
2022-08-30T18:20:31.866Z,2.28
2022-08-30T18:22:58.475Z,1.80
2022-08-30T18:25:25.019Z,2.13
2022-08-30T18:27:57.255Z,2.00
2022-08-30T18:30:33.162Z,2.33
2022-08-30T18:33:01.478Z,4.68
2022-08-30T18:35:38.743Z,2.47
2022-08-30T18:38:09.873Z,6.00
2022-08-30T18:40:37.982Z,3.38
2022-08-30T18:43:08.022Z,2.67
2022-08-30T18:45:35.253Z,2.05
2022-08-30T18:48:03.794Z,2.40
2022-08-30T18:50:31.947Z,2.60
2022-08-30T18:52:58.690Z,2.30
2022-08-30T18:55:26.496Z,3.15
2022-08-30T18:57:53.117Z,2.28
2022-08-30T19:00:21.212Z,3.78
2022-08-30T19:02:47.945Z,4.20
2022-08-30T19:05:16.325Z,3.40
2022-08-30T19:07:44.545Z,5.47
2022-08-30T19:10:12.725Z,4.18
2022-08-30T19:12:40.273Z,4.35
2022-08-30T19:17:57.678Z,5.63
2022-08-30T19:20:25.113Z,4.53
2022-08-30T19:23:08.825Z,3.72
2022-08-30T19:25:40.140Z,4.50
2022-08-30T19:28:07.186Z,3.80
2022-08-30T19:30:34.533Z,3.95
2022-08-30T19:33:01.246Z,3.97
2022-08-30T19:35:29.928Z,3.63
2022-08-30T19:37:57.142Z,2.90
2022-08-30T19:40:23.860Z,4.13
2022-08-30T19:42:52.299Z,5.57
2022-08-30T19:45:21.672Z,3.45
2022-08-30T19:47:49.341Z,3.00
2022-08-30T19:50:17.158Z,3.35
2022-08-30T19:52:47.297Z,4.03
2022-08-30T19:55:17.778Z,3.40
2022-08-30T19:57:50.311Z,2.85
2022-08-30T20:00:17.709Z,3.28
2022-08-30T20:02:44.806Z,3.35
2022-08-30T20:05:17.402Z,2.78
2022-08-30T20:07:44.036Z,2.65
2022-08-30T20:10:12.919Z,2.65
2022-08-30T20:12:39.959Z,2.67
2022-08-30T20:15:14.648Z,2.70
2022-08-30T20:18:03.102Z,2.72
2022-08-30T20:20:33.567Z,2.47
2022-08-30T20:23:02.951Z,2.67
2022-08-30T20:24:32.208Z,3.80
2022-08-30T20:25:30.620Z,2.38
2022-08-30T20:27:57.153Z,2.38
2022-08-30T20:30:23.785Z,3.13
2022-08-30T20:32:52.557Z,4.15
2022-08-30T20:35:19.145Z,2.50
2022-08-30T20:37:45.922Z,2.08
2022-08-30T20:40:16.072Z,2.25
2022-08-30T20:42:45.711Z,2.90
2022-08-30T20:45:14.520Z,1.90
2022-08-30T20:47:41.778Z,2.35
2022-08-30T20:50:13.879Z,2.28
2022-08-30T20:52:40.813Z,1.92
2022-08-30T20:55:08.253Z,1.90
2022-08-30T20:57:34.858Z,2.20
2022-08-30T21:00:01.714Z,2.00
2022-08-30T21:02:28.400Z,2.40
2022-08-30T21:04:55.123Z,2.20
2022-08-30T21:07:21.768Z,2.20
2022-08-30T21:09:48.357Z,2.30
2022-08-30T21:12:14.973Z,2.33
2022-08-30T21:14:41.552Z,2.80
2022-08-30T21:17:08.195Z,2.13
2022-08-30T21:19:34.904Z,2.35
2022-08-30T21:22:01.913Z,2.25
2022-08-30T21:24:31.320Z,3.50
2022-08-30T21:26:58.821Z,2.38
2022-08-30T21:29:28.084Z,4.65
2022-08-30T21:31:55.551Z,2.13
2022-08-30T21:34:22.689Z,2.25
2022-08-30T21:36:49.858Z,2.47
2022-08-30T21:39:18.154Z,1.98
2022-08-30T21:41:45.286Z,2.10
2022-08-30T21:44:15.674Z,2.30
2022-08-30T21:46:42.767Z,2.65
2022-08-30T21:49:11.317Z,2.20
2022-08-30T21:51:41.212Z,3.10
2022-08-30T21:54:09.783Z,2.30
2022-08-30T21:56:37.853Z,2.28
2022-08-30T21:59:05.933Z,2.13
2022-08-30T22:01:33.000Z,2.10
2022-08-30T22:04:01.739Z,2.00
2022-08-30T22:06:30.865Z,2.20
2022-08-30T22:08:59.450Z,2.42
2022-08-30T22:11:26.989Z,2.35
2022-08-30T22:13:54.403Z,2.70
2022-08-30T22:16:22.303Z,2.30
2022-08-30T22:18:50.503Z,2.05
2022-08-30T22:21:20.817Z,2.70
2022-08-30T22:23:47.528Z,2.13
2022-08-30T22:26:16.700Z,2.05
2022-08-30T22:28:43.648Z,2.33
2022-08-30T22:31:12.675Z,2.08
2022-08-30T22:33:39.554Z,1.95
2022-08-30T22:36:14.593Z,3.08
2022-08-30T22:38:41.391Z,2.70
2022-08-30T22:41:10.340Z,2.03
2022-08-30T22:43:36.851Z,2.00
2022-08-30T22:46:03.661Z,2.20
2022-08-30T22:48:30.325Z,1.90
2022-08-30T22:50:56.917Z,2.15
2022-08-30T22:53:23.476Z,2.83
2022-08-30T22:55:50.060Z,2.55
2022-08-30T22:58:19.006Z,2.53
2022-08-30T23:00:49.729Z,2.30
2022-08-30T23:03:22.090Z,2.17
2022-08-30T23:05:48.657Z,2.00
2022-08-30T23:08:15.212Z,2.20
2022-08-30T23:10:41.886Z,1.98
2022-08-30T23:13:08.429Z,2.10
2022-08-30T23:15:35.027Z,2.20
2022-08-30T23:18:01.608Z,2.20
2022-08-30T23:20:28.304Z,3.40
2022-08-30T23:23:00.725Z,2.20
2022-08-30T23:25:51.738Z,2.40
2022-08-30T23:28:38.962Z,2.17
2022-08-30T23:31:32.590Z,2.53
2022-08-30T23:34:18.261Z,1.90
2022-08-30T23:37:03.555Z,2.15
2022-08-30T23:39:48.298Z,2.15
2022-08-30T23:42:33.290Z,4.07
2022-08-30T23:45:18.130Z,1.98
2022-08-30T23:48:03.374Z,2.25
2022-08-30T23:50:48.791Z,2.40
2022-08-30T23:53:33.598Z,2.30
2022-08-30T23:56:19.065Z,2.30
2022-08-30T23:59:04.174Z,2.30
